Time;durP1;ratioP1;P1;durP2;ratioP2;P2;SDS_P1;SDS_P2;PMS_P1;PMS_P2;Temp;Humidity;BMP_temperature;BMP_pressure;BME280_temperature;BME280_humidity;BME280_pressure;Samples;Min_cycle;Max_cycle;Signal;HPM_P1;HPM_P2
2022/06/15 00:00:44;;;;;;;4.53;2.40;;;19.20;71.80;;;;;;5022145;28;20094;-85
2022/06/15 00:03:12;;;;;;;6.70;2.70;;;19.10;71.90;;;;;;5015443;28;20060;-85
2022/06/15 00:05:39;;;;;;;4.22;2.05;;;19.10;71.80;;;;;;5042950;28;20037;-84
2022/06/15 00:08:05;;;;;;;9.18;3.63;;;19.10;72.20;;;;;;5023402;28;20086;-88
2022/06/15 00:10:32;;;;;;;4.90;2.28;;;19.00;71.40;;;;;;5023354;28;20029;-86
2022/06/15 00:12:59;;;;;;;4.18;2.40;;;19.00;71.00;;;;;;5020888;28;20524;-85
2022/06/15 00:15:24;;;;;;;5.93;2.45;;;19.10;70.70;;;;;;5022119;28;20112;-84
2022/06/15 00:17:50;;;;;;;4.97;2.30;;;;;;;;;;5022955;28;20100;-83
2022/06/15 00:20:16;;;;;;;9.45;3.17;;;19.00;69.20;;;;;;5019808;28;20054;-85
2022/06/15 00:22:42;;;;;;;7.32;4.03;;;;;;;;;;5018953;28;20030;-85
2022/06/15 00:25:09;;;;;;;6.97;3.05;;;19.10;69.20;;;;;;5018500;28;20034;-84
2022/06/15 00:27:35;;;;;;;6.10;2.38;;;19.10;69.20;;;;;;5018789;28;20081;-83
2022/06/15 00:30:02;;;;;;;3.35;2.03;;;19.10;69.20;;;;;;5014969;28;20049;-85
2022/06/15 00:32:28;;;;;;;3.58;1.60;;;19.00;69.10;;;;;;5014976;28;20080;-85
2022/06/15 00:34:54;;;;;;;4.22;1.95;;;19.10;68.80;;;;;;5017922;28;20041;-83
2022/06/15 00:37:20;;;;;;;4.03;1.77;;;;;;;;;;5015463;28;20022;-89
2022/06/15 00:39:45;;;;;;;4.53;2.05;;;19.00;67.80;;;;;;5015001;28;20049;-88
2022/06/15 00:42:12;;;;;;;5.13;2.20;;;19.00;69.00;;;;;;5016771;28;20017;-86
2022/06/15 00:44:39;;;;;;;4.68;2.28;;;18.90;69.50;;;;;;5016537;28;20057;-85
2022/06/15 00:47:20;;;;;;;5.63;2.90;;;18.90;71.60;;;;;;5030944;28;20045;-87
2022/06/15 00:49:58;;;;;;;6.13;2.92;;;18.90;73.30;;;;;;5023244;28;20095;-85
2022/06/15 00:52:44;;;;;;;5.13;2.85;;;18.80;73.30;;;;;;5011655;28;20030;-85
2022/06/15 00:55:14;;;;;;;6.35;2.50;;;18.80;73.10;;;;;;5016022;28;20124;-84
2022/06/15 00:57:41;;;;;;;8.68;2.83;;;18.70;73.90;;;;;;5034261;28;20048;-86
2022/06/15 01:00:07;;;;;;;7.63;3.42;;;18.60;74.00;;;;;;5017863;28;20026;-85
2022/06/15 01:02:36;;;;;;;6.90;2.30;;;18.60;74.50;;;;;;5018857;28;20045;-88
2022/06/15 01:05:13;;;;;;;7.22;2.40;;;18.50;74.80;;;;;;5021002;28;20033;-85
2022/06/15 01:07:47;;;;;;;8.70;3.65;;;18.40;75.20;;;;;;5018886;28;20472;-84
2022/06/15 01:10:45;;;;;;;4.55;2.50;;;18.40;75.80;;;;;;5020221;28;20373;-85
2022/06/15 01:13:29;;;;;;;5.60;2.35;;;18.20;75.30;;;;;;5012037;28;20022;-82
2022/06/15 01:16:02;;;;;;;7.00;2.40;;;19.10;76.30;;;;;;5017299;28;20113;-85
2022/06/15 01:19:16;;;;;;;6.32;2.83;;;18.00;76.00;;;;;;5010254;28;20014;-84
2022/06/15 01:21:54;;;;;;;6.55;2.50;;;17.90;76.70;;;;;;5017501;28;20435;-86
2022/06/15 01:24:20;;;;;;;4.03;2.00;;;;;;;;;;5015648;28;20038;-87
2022/06/15 01:27:27;;;;;;;5.50;2.30;;;17.70;76.70;;;;;;5021795;28;20022;-83
2022/06/15 01:30:25;;;;;;;3.53;1.80;;;17.70;77.10;;;;;;4978795;28;20049;-84
2022/06/15 01:33:25;;;;;;;6.68;2.58;;;17.60;77.10;;;;;;5015306;28;20037;-87
2022/06/15 01:35:54;;;;;;;5.85;2.45;;;17.60;77.00;;;;;;5018352;28;20045;-85
2022/06/15 01:38:21;;;;;;;5.63;2.30;;;;;;;;;;5028138;28;20026;-89
2022/06/15 01:41:29;;;;;;;11.02;5.10;;;17.60;76.70;;;;;;5020724;28;20053;-86
2022/06/15 01:44:23;;;;;;;8.73;3.33;;;17.60;77.20;;;;;;5012433;28;20042;-86
2022/06/15 01:46:49;;;;;;;8.13;2.40;;;17.50;79.00;;;;;;5043995;28;20397;-84
2022/06/15 01:49:24;;;;;;;4.45;2.72;;;17.40;79.10;;;;;;5022995;28;20029;-88
2022/06/15 01:51:50;;;;;;;5.82;2.53;;;;;;;;;;5018207;28;20321;-85
2022/06/15 01:54:28;;;;;;;5.53;2.75;;;17.50;78.20;;;;;;5017159;28;20054;-85
2022/06/15 01:56:57;;;;;;;5.30;2.17;;;17.40;78.60;;;;;;5020872;28;20045;-85
2022/06/15 01:59:30;;;;;;;4.25;2.50;;;17.40;78.60;;;;;;5023625;28;20026;-85
2022/06/15 02:02:07;;;;;;;5.72;2.78;;;17.30;79.00;;;;;;5049908;28;20035;-86
2022/06/15 02:05:12;;;;;;;5.15;2.60;;;17.30;79.20;;;;;;5021691;28;20058;-87
2022/06/15 02:07:57;;;;;;;5.13;2.17;;;17.20;79.60;;;;;;4983696;28;20042;-85
2022/06/15 02:10:31;;;;;;;4.88;2.15;;;17.20;79.20;;;;;;5028286;28;20037;-85
2022/06/15 02:13:02;;;;;;;4.13;2.13;;;17.10;78.90;;;;;;5021526;28;20452;-84
2022/06/15 02:15:29;;;;;;;4.00;2.17;;;17.20;79.90;;;;;;5018218;28;20025;-85
2022/06/15 02:18:00;;;;;;;12.18;5.30;;;17.10;80.00;;;;;;5003461;28;20026;-86
2022/06/15 02:20:30;;;;;;;5.95;2.25;;;17.10;80.10;;;;;;5045748;28;20046;-86
2022/06/15 02:22:59;;;;;;;6.03;2.50;;;17.00;80.40;;;;;;5019974;28;20027;-85
2022/06/15 02:25:32;;;;;;;6.05;2.47;;;17.00;80.70;;;;;;5015956;28;20030;-83
2022/06/15 02:28:00;;;;;;;6.05;2.30;;;17.00;80.70;;;;;;5022665;28;20042;-84
2022/06/15 02:30:27;;;;;;;5.78;3.00;;;16.90;80.80;;;;;;5022951;28;20030;-86
2022/06/15 02:32:54;;;;;;;17.08;8.48;;;;;;;;;;5023554;28;20080;-86
2022/06/15 02:35:21;;;;;;;4.97;2.50;;;16.80;80.80;;;;;;5023437;28;20113;-86
2022/06/15 02:37:49;;;;;;;4.18;2.35;;;17.60;82.20;;;;;;5018157;28;20098;-86
2022/06/15 02:40:19;;;;;;;3.95;2.20;;;16.70;82.00;;;;;;5014582;28;20022;-86
2022/06/15 02:42:45;;;;;;;3.80;1.95;;;16.60;82.00;;;;;;5015632;28;20026;-82
2022/06/15 02:45:17;;;;;;;3.33;2.13;;;16.50;82.60;;;;;;5021649;28;20018;-82
2022/06/15 02:47:43;;;;;;;4.80;2.40;;;16.60;82.40;;;;;;5016185;28;20025;-84
2022/06/15 02:50:13;;;;;;;3.90;2.15;;;16.30;82.90;;;;;;5025197;28;20018;-85
2022/06/15 02:52:46;;;;;;;4.85;2.33;;;16.30;82.60;;;;;;5028760;28;20014;-88
2022/06/15 02:55:13;;;;;;;3.55;2.00;;;16.20;82.20;;;;;;5037031;28;20084;-88
2022/06/15 02:58:00;;;;;;;3.63;1.90;;;16.20;83.00;;;;;;5036195;28;20026;-87
2022/06/15 03:00:26;;;;;;;5.72;2.10;;;16.10;83.10;;;;;;5033909;28;20050;-84
2022/06/15 03:02:52;;;;;;;4.80;2.00;;;16.10;82.90;;;;;;5023841;28;20029;-84
2022/06/15 03:05:18;;;;;;;5.10;2.25;;;16.10;82.90;;;;;;5019593;28;20030;-85
2022/06/15 03:07:44;;;;;;;6.25;2.40;;;16.00;83.60;;;;;;5038696;28;20022;-85
2022/06/15 03:10:10;;;;;;;6.47;2.10;;;16.00;83.70;;;;;;5022824;28;20041;-85
2022/06/15 03:12:35;;;;;;;4.15;1.95;;;16.00;83.00;;;;;;5037743;28;20031;-83
2022/06/15 03:15:01;;;;;;;6.85;2.10;;;16.10;83.20;;;;;;5017241;28;20034;-87
2022/06/15 03:17:27;;;;;;;4.75;1.90;;;15.90;83.30;;;;;;5006939;28;20117;-85
2022/06/15 03:19:52;;;;;;;3.55;2.15;;;15.80;83.60;;;;;;5021259;28;20025;-85
2022/06/15 03:22:18;;;;;;;3.58;1.98;;;15.80;83.90;;;;;;5004209;28;20030;-85
2022/06/15 03:24:44;;;;;;;5.35;2.00;;;15.70;84.30;;;;;;5022344;28;20463;-86
2022/06/15 03:27:09;;;;;;;4.53;1.98;;;15.80;85.00;;;;;;5022998;28;20018;-84
2022/06/15 03:29:36;;;;;;;3.63;1.77;;;15.70;85.00;;;;;;5022932;28;20029;-84
2022/06/15 03:32:02;;;;;;;3.85;1.98;;;15.80;84.60;;;;;;5024128;28;20052;-86
2022/06/15 03:34:28;;;;;;;5.70;2.03;;;15.70;84.50;;;;;;5020055;28;20034;-84
2022/06/15 03:36:54;;;;;;;4.32;2.15;;;16.70;85.50;;;;;;5022294;28;20033;-85
2022/06/15 03:39:19;;;;;;;5.22;2.22;;;15.70;85.00;;;;;;5022090;28;20029;-86
2022/06/15 03:41:45;;;;;;;3.58;2.33;;;15.60;84.70;;;;;;5036120;28;20097;-86
2022/06/15 03:44:11;;;;;;;5.20;2.20;;;15.80;85.10;;;;;;5032987;28;20037;-87
2022/06/15 03:46:37;;;;;;;4.93;2.10;;;15.60;85.40;;;;;;5030999;28;20144;-86
2022/06/15 03:49:03;;;;;;;3.30;2.40;;;15.60;85.40;;;;;;5025338;28;20038;-84
2022/06/15 03:51:29;;;;;;;4.05;2.22;;;;;;;;;;5017580;28;20030;-83
2022/06/15 03:53:55;;;;;;;3.70;2.13;;;15.60;85.30;;;;;;5014892;28;20180;-85
2022/06/15 03:56:21;;;;;;;4.25;2.40;;;;;;;;;;5035826;28;20053;-86
2022/06/15 03:58:47;;;;;;;6.43;2.25;;;15.50;85.70;;;;;;5018131;28;20168;-85
2022/06/15 04:01:13;;;;;;;5.18;2.53;;;15.60;86.10;;;;;;5020700;28;20053;-84
2022/06/15 04:03:39;;;;;;;4.03;2.30;;;;;;;;;;5010437;28;20041;-85
2022/06/15 04:06:06;;;;;;;4.63;2.35;;;15.50;86.40;;;;;;5015813;28;20096;-85
2022/06/15 04:08:34;;;;;;;4.65;2.30;;;15.50;87.10;;;;;;5018137;28;20025;-84
2022/06/15 04:11:58;;;;;;;4.65;2.28;;;15.50;87.50;;;;;;5022463;28;20048;-84
2022/06/15 04:13:58;;;;;;;5.03;2.35;;;15.50;87.70;;;;;;5017116;28;20034;-82
2022/06/15 04:16:24;;;;;;;6.72;2.70;;;15.60;88.00;;;;;;5013876;28;20022;-83
2022/06/15 04:18:50;;;;;;;4.05;2.00;;;15.50;87.80;;;;;;5016709;28;20050;-85
2022/06/15 04:21:16;;;;;;;4.63;2.40;;;;;;;;;;5007442;28;20029;-83
2022/06/15 04:23:42;;;;;;;3.17;2.50;;;15.60;87.50;;;;;;5010011;28;20084;-86
2022/06/15 04:26:09;;;;;;;5.50;2.40;;;15.70;88.10;;;;;;5011781;28;20022;-84
2022/06/15 04:28:38;;;;;;;7.93;2.53;;;15.60;87.80;;;;;;5015386;28;20022;-85
2022/06/15 04:31:03;;;;;;;5.53;2.30;;;16.10;88.00;;;;;;5016394;28;20044;-84
2022/06/15 04:33:29;;;;;;;6.88;2.50;;;15.60;88.10;;;;;;5016549;28;20025;-87
2022/06/15 04:35:55;;;;;;;5.78;2.38;;;15.60;87.80;;;;;;5013439;28;20029;-84
2022/06/15 04:38:21;;;;;;;5.70;2.25;;;15.60;87.90;;;;;;5017604;28;20022;-85
2022/06/15 04:40:47;;;;;;;6.30;2.30;;;15.70;87.80;;;;;;5017126;28;20049;-83
2022/06/15 04:43:13;;;;;;;7.07;2.50;;;15.70;87.90;;;;;;5031243;28;20022;-85
2022/06/15 04:45:39;;;;;;;4.43;2.17;;;;;;;;;;5019058;28;20029;-87
2022/06/15 04:48:05;;;;;;;4.85;2.22;;;15.80;87.40;;;;;;5017745;28;20034;-84
2022/06/15 04:50:31;;;;;;;6.85;2.42;;;15.80;87.60;;;;;;5018602;28;20080;-87
2022/06/15 04:52:57;;;;;;;4.55;2.40;;;16.40;88.00;;;;;;5011135;28;20072;-83
2022/06/15 04:55:24;;;;;;;4.07;2.22;;;15.80;87.40;;;;;;5013305;28;20034;-84
2022/06/15 04:57:54;;;;;;;5.85;2.50;;;;;;;;;;4993570;28;20514;-83
2022/06/15 05:00:23;;;;;;;4.60;2.30;;;16.00;86.60;;;;;;5012471;28;20807;-86
2022/06/15 05:02:49;;;;;;;4.25;2.20;;;16.10;86.50;;;;;;5015733;28;20038;-83
2022/06/15 05:05:15;;;;;;;5.15;2.03;;;16.20;86.00;;;;;;5032120;28;20034;-82
2022/06/15 05:07:41;;;;;;;4.00;2.00;;;16.20;85.00;;;;;;5013860;28;20117;-82
2022/06/15 05:10:16;;;;;;;5.22;2.20;;;16.80;85.70;;;;;;5009038;28;20440;-83
2022/06/15 05:12:42;;;;;;;6.40;1.98;;;16.40;85.30;;;;;;5006430;28;20057;-81
2022/06/15 05:15:08;;;;;;;7.38;2.38;;;16.50;84.50;;;;;;5013893;28;20030;-81
2022/06/15 05:17:34;;;;;;;6.72;2.65;;;16.50;84.10;;;;;;5024667;28;20030;-85
2022/06/15 05:19:59;;;;;;;6.57;2.17;;;16.80;83.50;;;;;;5029693;28;20026;-83
2022/06/15 05:22:25;;;;;;;3.38;1.80;;;17.50;81.00;;;;;;5021012;28;20036;-87
2022/06/15 05:24:50;;;;;;;5.03;2.05;;;18.90;76.90;;;;;;5018308;28;20548;-83
2022/06/15 05:27:16;;;;;;;3.88;1.80;;;20.30;72.80;;;;;;5035354;28;20042;-83
2022/06/15 05:29:42;;;;;;;4.20;2.13;;;21.20;70.20;;;;;;5022477;28;20034;-82
2022/06/15 05:32:08;;;;;;;6.63;2.10;;;22.00;67.80;;;;;;5002804;28;20065;-82
2022/06/15 05:34:35;;;;;;;3.28;1.92;;;22.40;66.50;;;;;;5012615;28;20416;-84
2022/06/15 05:37:01;;;;;;;6.00;2.38;;;23.30;64.60;;;;;;5015842;28;20033;-83
2022/06/15 05:39:27;;;;;;;3.25;1.80;;;23.60;64.10;;;;;;5011811;28;20131;-82
2022/06/15 05:41:53;;;;;;;4.50;1.90;;;24.30;62.30;;;;;;5017592;28;20034;-82
2022/06/15 05:47:01;;;;;;;4.43;2.30;;;23.80;62.90;;;;;;5016982;28;20033;-81
2022/06/15 05:49:28;;;;;;;6.00;2.20;;;23.90;62.70;;;;;;5016216;28;20411;-83
2022/06/15 05:51:53;;;;;;;5.05;1.92;;;24.80;61.10;;;;;;5015137;28;20030;-84
2022/06/15 05:54:19;;;;;;;3.78;2.30;;;25.20;59.90;;;;;;5012432;28;20499;-82
2022/06/15 05:56:45;;;;;;;5.38;2.20;;;25.40;60.30;;;;;;5016302;28;20026;-84
2022/06/15 05:59:11;;;;;;;4.43;1.80;;;25.60;59.10;;;;;;5020713;28;20507;-80
2022/06/15 06:01:37;;;;;;;3.50;2.10;;;25.00;59.20;;;;;;5021893;28;20030;-83
2022/06/15 06:04:04;;;;;;;6.03;2.35;;;24.30;60.80;;;;;;5014960;28;20030;-82
2022/06/15 06:06:30;;;;;;;6.55;2.10;;;24.30;61.10;;;;;;5014784;28;20030;-84
2022/06/15 06:08:57;;;;;;;9.25;2.22;;;24.80;59.70;;;;;;5023284;28;20030;-84
2022/06/15 06:11:23;;;;;;;5.72;2.00;;;24.20;61.00;;;;;;5024879;28;20058;-83
2022/06/15 06:13:49;;;;;;;4.30;1.98;;;;;;;;;;5024482;28;20057;-83
2022/06/15 06:16:15;;;;;;;6.32;2.60;;;25.20;58.90;;;;;;5020514;28;20027;-84
2022/06/15 06:18:41;;;;;;;5.25;2.05;;;25.10;59.70;;;;;;5021063;28;20042;-82
2022/06/15 06:21:08;;;;;;;6.35;2.20;;;25.10;60.00;;;;;;5021327;28;20037;-84
2022/06/15 06:23:34;;;;;;;3.95;1.92;;;24.90;59.60;;;;;;5019920;28;20010;-84
2022/06/15 06:26:01;;;;;;;5.20;2.28;;;25.10;59.40;;;;;;5031234;28;20126;-83
2022/06/15 06:28:30;;;;;;;4.47;2.00;;;24.80;60.00;;;;;;5030028;28;20026;-85
2022/06/15 06:31:00;;;;;;;5.70;2.03;;;24.80;59.20;;;;;;5064416;28;20036;-84
2022/06/15 06:33:28;;;;;;;5.30;2.38;;;24.50;60.20;;;;;;5035314;28;20042;-85
2022/06/15 06:35:58;;;;;;;2.72;1.90;;;24.40;59.70;;;;;;5019267;28;20022;-85
2022/06/15 06:38:27;;;;;;;9.30;2.67;;;24.40;60.40;;;;;;5027921;28;20048;-84
2022/06/15 06:40:54;;;;;;;7.63;2.35;;;24.10;60.50;;;;;;5026091;28;20029;-83
2022/06/15 06:43:20;;;;;;;5.35;2.15;;;24.00;61.00;;;;;;5024887;28;20495;-85
2022/06/15 06:45:47;;;;;;;3.65;2.08;;;24.10;61.00;;;;;;5028296;28;20033;-86
2022/06/15 06:48:13;;;;;;;3.42;2.00;;;;;;;;;;5030662;28;20022;-84
2022/06/15 06:50:40;;;;;;;5.32;2.30;;;23.90;60.80;;;;;;5026635;28;20084;-83
2022/06/15 06:53:11;;;;;;;5.75;2.35;;;23.70;62.30;;;;;;5028654;28;20034;-83
2022/06/15 06:55:37;;;;;;;8.40;2.47;;;23.80;62.00;;;;;;5024309;28;20101;-84
2022/06/15 06:58:03;;;;;;;6.00;2.50;;;23.80;62.40;;;;;;5022780;28;20026;-86
2022/06/15 07:00:30;;;;;;;4.35;2.05;;;23.70;62.10;;;;;;5030082;28;20049;-85
2022/06/15 07:02:58;;;;;;;5.72;2.05;;;23.50;62.70;;;;;;5030962;28;20034;-86
2022/06/15 07:05:24;;;;;;;6.30;2.33;;;;;;;;;;5031745;28;20030;-84
2022/06/15 07:07:51;;;;;;;5.13;2.28;;;;;;;;;;5020124;28;20048;-86
2022/06/15 07:10:17;;;;;;;6.45;2.53;;;;;;;;;;5032055;28;20061;-85
2022/06/15 07:12:43;;;;;;;4.65;2.05;;;;;;;;;;5037230;28;20029;-87
2022/06/15 07:15:14;;;;;;;5.30;2.45;;;22.90;64.30;;;;;;5032873;28;20018;-84
2022/06/15 07:17:40;;;;;;;4.60;2.10;;;22.80;64.90;;;;;;5038615;28;20014;-85
2022/06/15 07:20:07;;;;;;;8.05;2.28;;;22.60;65.00;;;;;;5033666;28;20044;-87
2022/06/15 07:22:34;;;;;;;9.32;2.45;;;22.60;65.50;;;;;;5027104;28;20073;-85
2022/06/15 07:24:59;;;;;;;4.55;2.17;;;22.60;66.20;;;;;;5031517;28;20025;-87
2022/06/15 07:27:26;;;;;;;5.15;2.08;;;;;;;;;;5030713;28;20021;-86
2022/06/15 07:29:53;;;;;;;4.05;2.10;;;;;;;;;;5026285;28;20097;-85
2022/06/15 07:32:19;;;;;;;5.22;2.15;;;22.80;65.60;;;;;;5021111;28;20031;-88
2022/06/15 07:34:45;;;;;;;4.10;2.60;;;24.40;66.90;;;;;;5030902;28;20033;-86
2022/06/15 07:37:11;;;;;;;5.47;2.40;;;22.80;66.70;;;;;;5033384;28;20049;-85
2022/06/15 07:39:37;;;;;;;8.80;2.72;;;20.60;65.10;;;;;;5037070;28;20026;-86
2022/06/15 07:42:06;;;;;;;9.63;2.30;;;22.80;66.50;;;;;;5037929;28;20032;-88
2022/06/15 07:44:39;;;;;;;5.45;2.33;;;23.00;65.90;;;;;;5038382;28;20017;-86
2022/06/15 07:52:17;;;;;;;5.32;2.40;;;23.20;65.50;;;;;;5032882;28;20044;-84
2022/06/15 07:54:43;;;;;;;7.47;2.65;;;23.30;65.40;;;;;;5037242;28;20034;-82
2022/06/15 07:57:09;;;;;;;7.22;2.60;;;23.30;64.90;;;;;;5036740;28;20402;-83
2022/06/15 07:59:34;;;;;;;5.30;2.45;;;23.30;64.30;;;;;;5024765;28;20136;-84
2022/06/15 08:02:00;;;;;;;6.32;2.63;;;23.40;64.50;;;;;;5032563;28;20060;-82
2022/06/15 08:04:25;;;;;;;6.72;2.47;;;23.40;65.00;;;;;;5027245;28;20500;-83
2022/06/15 08:06:51;;;;;;;4.78;2.70;;;23.50;65.20;;;;;;5033093;28;20458;-83
2022/06/15 08:09:18;;;;;;;5.03;2.50;;;23.40;65.10;;;;;;5036979;28;20039;-82
2022/06/15 08:14:32;;;;;;;7.35;2.28;;;23.50;65.60;;;;;;5032134;28;20036;-82
2022/06/15 08:16:59;;;;;;;10.35;2.72;;;23.50;65.20;;;;;;5024270;28;20087;-83
2022/06/15 08:19:25;;;;;;;4.05;2.25;;;23.60;65.60;;;;;;5032717;28;20117;-80
2022/06/15 08:21:51;;;;;;;4.78;2.63;;;23.50;65.70;;;;;;5024645;28;20083;-81
2022/06/15 08:24:17;;;;;;;4.30;2.30;;;23.50;66.10;;;;;;5030046;28;20025;-81
2022/06/15 08:26:43;;;;;;;4.32;2.60;;;23.70;66.30;;;;;;5033601;28;20034;-82
2022/06/15 08:29:12;;;;;;;5.35;2.55;;;23.90;66.00;;;;;;5035361;28;20032;-81
2022/06/15 08:31:39;;;;;;;6.88;2.42;;;24.10;66.10;;;;;;5019296;28;20124;-80
2022/06/15 08:34:06;;;;;;;6.30;3.20;;;24.20;65.50;;;;;;5033371;28;20111;-82
2022/06/15 08:36:32;;;;;;;7.43;2.28;;;24.20;65.90;;;;;;5028382;28;20037;-80
2022/06/15 08:38:58;;;;;;;5.45;2.38;;;24.30;65.50;;;;;;5024081;28;20035;-83
2022/06/15 08:41:47;;;;;;;7.90;2.38;;;24.40;66.00;;;;;;5029501;28;20478;-81
2022/06/15 08:44:53;;;;;;;5.50;2.28;;;24.50;65.60;;;;;;5032864;28;20034;-82
2022/06/15 08:47:44;;;;;;;6.20;2.22;;;24.60;65.20;;;;;;5028976;28;20502;-82
2022/06/15 08:50:34;;;;;;;5.13;2.05;;;24.70;65.40;;;;;;5033745;28;20067;-82
2022/06/15 08:53:30;;;;;;;6.55;2.33;;;24.70;65.30;;;;;;5030391;28;20368;-81
2022/06/15 08:56:04;;;;;;;4.63;2.30;;;24.70;65.30;;;;;;5026003;28;20022;-82
2022/06/15 08:58:42;;;;;;;7.18;2.40;;;24.80;65.10;;;;;;5034434;28;20022;-82
2022/06/15 09:01:13;;;;;;;6.68;3.00;;;24.90;65.20;;;;;;5035177;28;20026;-80
2022/06/15 09:04:17;;;;;;;5.75;2.63;;;25.00;65.60;;;;;;5034612;28;20079;-82
2022/06/15 09:07:24;;;;;;;7.63;2.35;;;25.00;65.00;;;;;;5023039;28;20144;-82
2022/06/15 09:10:00;;;;;;;5.65;2.40;;;25.20;65.80;;;;;;4996723;28;20221;-82
2022/06/15 09:12:49;;;;;;;7.50;2.60;;;25.40;65.00;;;;;;5020755;28;20025;-82
2022/06/15 09:15:33;;;;;;;6.60;2.55;;;25.50;64.20;;;;;;5029245;28;20036;-82
2022/06/15 09:18:25;;;;;;;5.22;2.25;;;25.50;64.10;;;;;;5030548;28;20026;-82
2022/06/15 09:20:57;;;;;;;5.22;2.42;;;25.60;64.60;;;;;;5029900;28;20030;-83
2022/06/15 09:23:42;;;;;;;5.80;2.50;;;25.70;64.40;;;;;;5023437;28;20108;-82
2022/06/15 09:26:24;;;;;;;6.40;2.50;;;25.70;63.70;;;;;;5030660;28;20030;-84
2022/06/15 09:28:59;;;;;;;5.28;2.60;;;25.80;63.60;;;;;;5031548;28;20029;-81
2022/06/15 09:31:40;;;;;;;5.10;2.40;;;26.00;63.70;;;;;;5036746;28;20176;-81
2022/06/15 09:34:07;;;;;;;5.55;2.47;;;26.20;63.60;;;;;;5032191;28;20081;-82
2022/06/15 09:36:47;;;;;;;6.50;2.72;;;26.30;63.20;;;;;;5033677;28;20048;-82
2022/06/15 09:39:14;;;;;;;3.58;2.40;;;26.40;63.30;;;;;;5032776;28;20478;-81
2022/06/15 09:42:04;;;;;;;6.15;2.65;;;26.50;62.80;;;;;;5033070;28;20029;-83
2022/06/15 09:44:53;;;;;;;5.40;2.55;;;26.60;62.90;;;;;;5037594;28;20030;-81
2022/06/15 09:47:39;;;;;;;5.28;2.55;;;26.60;63.50;;;;;;5026901;28;20052;-80
2022/06/15 09:50:18;;;;;;;5.03;2.90;;;26.80;62.40;;;;;;5023125;28;20120;-82
2022/06/15 09:52:56;;;;;;;;;;;26.80;62.50;;;;;;5027413;28;20045;-82
2022/06/15 09:55:44;;;;;;;8.27;2.45;;;26.80;62.50;;;;;;5027579;28;19909;-82
2022/06/15 09:58:16;;;;;;;5.57;2.63;;;26.90;62.20;;;;;;5021000;28;20025;-83
2022/06/15 10:00:43;;;;;;;5.75;2.75;;;27.00;62.10;;;;;;5046770;23;20683;-89
2022/06/15 10:03:24;;;;;;;6.93;2.67;;;27.00;62.40;;;;;;5037521;28;20092;-86
2022/06/15 10:05:52;;;;;;;4.85;2.50;;;27.10;62.20;;;;;;5034865;28;20026;-87
2022/06/15 10:08:17;;;;;;;5.78;2.67;;;27.20;62.00;;;;;;5047131;28;20036;-89
2022/06/15 10:10:50;;;;;;;6.57;2.53;;;29.30;64.20;;;;;;5042753;28;20025;-89
2022/06/15 10:13:19;;;;;;;8.48;3.08;;;27.40;62.10;;;;;;5043060;28;20064;-89
2022/06/15 10:15:50;;;;;;;4.63;2.90;;;27.50;62.10;;;;;;5045382;28;20029;-89
2022/06/15 10:18:30;;;;;;;5.40;2.90;;;27.60;61.30;;;;;;5047733;28;20013;-89
2022/06/15 10:21:14;;;;;;;4.85;2.80;;;27.80;60.80;;;;;;5035108;28;20029;-88
2022/06/15 10:24:00;;;;;;;8.10;2.72;;;27.60;60.30;;;;;;5044944;28;20392;-87
2022/06/15 10:26:32;;;;;;;4.50;2.45;;;27.60;60.50;;;;;;5036295;28;20028;-88
2022/06/15 10:29:13;;;;;;;6.53;2.63;;;27.70;61.30;;;;;;5045316;28;20010;-87
2022/06/15 10:31:39;;;;;;;7.55;2.97;;;27.70;60.60;;;;;;5051455;28;20029;-89
2022/06/15 10:34:21;;;;;;;5.53;2.60;;;27.90;60.40;;;;;;5042394;28;20030;-88
2022/06/15 10:36:53;;;;;;;4.50;2.45;;;28.00;59.90;;;;;;5043845;28;20050;-89
2022/06/15 10:39:29;;;;;;;6.45;2.85;;;28.00;59.50;;;;;;5045276;28;20058;-88
2022/06/15 10:42:10;;;;;;;4.10;2.60;;;28.10;59.70;;;;;;5048367;28;20048;-89
2022/06/15 10:44:48;;;;;;;5.65;3.30;;;28.20;59.70;;;;;;5042642;28;20022;-86
2022/06/15 10:47:19;;;;;;;4.65;2.65;;;28.20;59.20;;;;;;5040173;28;20085;-87
2022/06/15 10:49:51;;;;;;;7.30;2.75;;;28.20;58.10;;;;;;5054174;28;20048;-86
2022/06/15 10:52:38;;;;;;;4.22;2.47;;;28.10;58.70;;;;;;5048310;28;20109;-87
2022/06/15 11:04:22;;;;;;;5.10;2.72;;;28.40;56.80;;;;;;5038784;28;20056;-88
2022/06/15 11:07:03;;;;;;;5.50;2.30;;;28.50;57.30;;;;;;5047276;28;20029;-87
2022/06/15 11:09:35;;;;;;;5.80;2.58;;;28.60;56.90;;;;;;5040299;28;20049;-88
2022/06/15 11:12:07;;;;;;;5.13;2.58;;;28.70;56.80;;;;;;5048373;28;20044;-87
2022/06/15 11:14:50;;;;;;;5.93;2.70;;;28.60;57.00;;;;;;5036418;28;20093;-87
2022/06/15 11:20:28;;;;;;;5.07;2.70;;;28.80;57.50;;;;;;5037741;28;20113;-88
2022/06/15 11:23:01;;;;;;;4.40;2.92;;;28.90;56.90;;;;;;5039319;28;20359;-88
2022/06/15 11:25:38;;;;;;;4.90;2.47;;;29.00;54.30;;;;;;5040024;28;20060;-87
2022/06/15 11:28:10;;;;;;;6.20;2.50;;;29.00;54.80;;;;;;5038691;28;20045;-88
2022/06/15 11:30:52;;;;;;;5.65;2.20;;;28.90;54.80;;;;;;5031871;28;20046;-88
2022/06/15 11:33:36;;;;;;;7.35;2.55;;;29.00;55.30;;;;;;5035863;28;20044;-88
2022/06/15 11:36:06;;;;;;;6.32;2.40;;;29.00;56.10;;;;;;5032395;28;20021;-88
2022/06/15 11:38:39;;;;;;;7.35;2.97;;;29.10;55.50;;;;;;5050201;28;20040;-87
2022/06/15 11:41:21;;;;;;;6.60;2.50;;;29.00;55.70;;;;;;5040264;28;20029;-88
2022/06/15 11:43:50;;;;;;;4.78;2.30;;;29.00;55.20;;;;;;5042475;28;20061;-87
2022/06/15 11:46:28;;;;;;;3.95;2.13;;;29.30;54.10;;;;;;5040081;28;20181;-88
2022/06/15 11:49:11;;;;;;;4.75;2.10;;;29.40;53.30;;;;;;5034663;28;20033;-86
2022/06/15 11:52:00;;;;;;;3.67;2.17;;;29.50;53.80;;;;;;5040128;28;20121;-88
2022/06/15 11:54:35;;;;;;;5.10;2.38;;;29.50;54.30;;;;;;5036865;28;20037;-87
2022/06/15 11:57:03;;;;;;;6.57;2.50;;;29.60;53.70;;;;;;5035475;28;20025;-87
2022/06/15 11:59:54;;;;;;;5.68;2.35;;;29.70;53.90;;;;;;5050856;28;20112;-86
2022/06/15 12:02:35;;;;;;;4.22;2.50;;;29.70;53.40;;;;;;5056339;28;20025;-86
2022/06/15 12:05:01;;;;;;;3.60;2.30;;;;;;;;;;5046552;28;20124;-88
2022/06/15 12:08:01;;;;;;;5.45;2.42;;;29.70;53.50;;;;;;5041477;28;20025;-87
2022/06/15 12:10:48;;;;;;;6.40;3.05;;;29.70;54.00;;;;;;5041725;28;20030;-87
2022/06/15 12:13:39;;;;;;;6.20;2.55;;;29.70;54.70;;;;;;5047079;28;20022;-87
2022/06/15 12:16:13;;;;;;;5.88;2.80;;;29.80;54.80;;;;;;5051703;28;20017;-87
2022/06/15 12:19:07;;;;;;;5.65;3.10;;;29.80;54.20;;;;;;5040975;28;20042;-87
2022/06/15 12:21:34;;;;;;;5.97;2.58;;;;;;;;;;5015101;28;20030;-87
2022/06/15 12:24:07;;;;;;;5.18;2.20;;;29.90;54.20;;;;;;5028166;28;20413;-88
2022/06/15 12:27:01;;;;;;;6.45;2.58;;;30.10;55.30;;;;;;5038336;28;20563;-87
2022/06/15 12:29:37;;;;;;;7.25;2.47;;;30.20;53.10;;;;;;5037328;28;20436;-86
2022/06/15 12:35:15;;;;;;;6.35;2.90;;;30.30;53.90;;;;;;5042259;28;20046;-88
2022/06/15 12:38:11;;;;;;;5.70;2.58;;;30.40;53.70;;;;;;5040468;28;20548;-90
2022/06/15 12:40:41;;;;;;;5.28;2.30;;;30.70;54.40;;;;;;5002286;28;20034;-88
2022/06/15 12:43:26;;;;;;;7.10;3.08;;;30.70;52.80;;;;;;5036761;28;20466;-87
2022/06/15 12:46:01;;;;;;;5.85;2.50;;;30.70;53.90;;;;;;5032075;28;20049;-89
2022/06/15 12:48:27;;;;;;;5.90;2.53;;;;;;;;;;5032017;28;20037;-89
2022/06/15 12:51:09;;;;;;;5.25;2.67;;;30.70;52.00;;;;;;5030650;28;20036;-88
2022/06/15 12:53:39;;;;;;;4.80;2.40;;;30.70;52.80;;;;;;5040978;28;20029;-88
2022/06/15 12:56:22;;;;;;;6.10;2.20;;;30.70;52.10;;;;;;5036358;28;20018;-87
2022/06/15 12:59:08;;;;;;;4.07;2.35;;;30.60;52.90;;;;;;5045737;28;20025;-88
2022/06/15 13:01:46;;;;;;;3.50;2.40;;;30.80;52.60;;;;;;5045915;28;20018;-88
2022/06/15 13:05:05;;;;;;;4.70;2.55;;;30.90;53.50;;;;;;5053547;28;20014;-90
2022/06/15 13:07:35;;;;;;;5.70;2.35;;;31.10;51.90;;;;;;4984945;28;20045;-89
2022/06/15 13:10:06;;;;;;;6.47;2.85;;;31.10;51.30;;;;;;5036117;28;20028;-91
2022/06/15 13:12:45;;;;;;;4.00;2.38;;;31.00;53.70;;;;;;5037352;28;20081;-90
2022/06/15 13:15:26;;;;;;;3.75;2.50;;;31.00;52.10;;;;;;5040058;28;20046;-90
2022/06/15 13:18:14;;;;;;;4.82;2.40;;;30.90;53.40;;;;;;5041239;28;20053;-90
2022/06/15 13:20:46;;;;;;;6.83;2.60;;;30.90;52.10;;;;;;5030655;28;20048;-88
2022/06/15 13:23:45;;;;;;;8.30;2.63;;;30.80;52.20;;;;;;5044873;28;20025;-90
2022/06/15 13:26:23;;;;;;;4.80;2.25;;;30.90;51.00;;;;;;5042123;28;20576;-88
2022/06/15 13:28:58;;;;;;;4.68;2.40;;;30.80;51.20;;;;;;5032502;28;20049;-87
2022/06/15 13:31:47;;;;;;;5.13;2.35;;;30.90;51.40;;;;;;5037168;28;20200;-88
2022/06/15 13:34:36;;;;;;;4.55;2.40;;;31.00;52.90;;;;;;5030024;28;20049;-86
2022/06/15 13:37:14;;;;;;;8.10;2.40;;;31.00;50.20;;;;;;5023568;28;20038;-86
2022/06/15 13:40:08;;;;;;;5.07;2.35;;;30.90;49.80;;;;;;5020350;28;20037;-88
2022/06/15 13:42:45;;;;;;;6.05;2.50;;;30.90;49.20;;;;;;5027317;28;20210;-88
2022/06/15 13:45:34;;;;;;;6.30;2.65;;;30.80;49.60;;;;;;5028927;28;20642;-87
2022/06/15 13:48:06;;;;;;;6.07;2.53;;;30.80;49.20;;;;;;5030946;28;20069;-87
2022/06/15 13:50:42;;;;;;;5.30;2.40;;;30.90;49.40;;;;;;5028267;28;20030;-89